Time;durP1;ratioP1;P1;durP2;ratioP2;P2;SDS_P1;SDS_P2;PMS_P1;PMS_P2;Temp;Humidity;BMP_temperature;BMP_pressure;BME280_temperature;BME280_humidity;BME280_pressure;Samples;Min_cycle;Max_cycle;Signal;HPM_P1;HPM_P2
2022/03/01 00:00:13;;;;;;;3.97;2.47;;;;;;;18.22;48.46;97625.31;10412186;28;20099;-24
2022/03/01 00:05:14;;;;;;;6.03;2.75;;;;;;;18.19;48.80;97610.06;10412331;28;20056;-23
2022/03/01 00:10:14;;;;;;;2.75;2.22;;;;;;;18.20;48.88;97616.81;10411191;28;20050;-24
2022/03/01 00:15:15;;;;;;;3.50;2.33;;;;;;;18.21;48.19;97615.13;10393716;28;20103;-24
2022/03/01 00:20:15;;;;;;;5.30;2.22;;;;;;;18.21;48.82;97607.53;10401578;28;20795;-23
2022/03/01 00:25:15;;;;;;;4.57;2.27;;;;;;;18.21;48.90;97612.59;10411368;28;20036;-24
2022/03/01 00:30:16;;;;;;;3.27;2.30;;;;;;;18.17;49.17;97609.16;10411029;28;20117;-24
2022/03/01 00:35:17;;;;;;;3.30;2.33;;;;;;;18.20;48.78;97613.44;10410743;28;20302;-24
2022/03/01 00:40:17;;;;;;;5.60;3.17;;;;;;;18.22;48.78;97610.09;10410980;28;20680;-23
2022/03/01 00:45:18;;;;;;;4.82;2.90;;;;;;;18.22;48.83;97609.22;10410325;28;20029;-23
2022/03/01 00:50:18;;;;;;;4.20;2.43;;;;;;;18.22;48.61;97620.22;10379476;28;20045;-24
2022/03/01 00:55:18;;;;;;;3.80;2.33;;;;;;;18.22;49.11;97615.16;10370203;28;20756;-24
2022/03/01 01:00:19;;;;;;;4.83;2.63;;;;;;;18.20;48.82;97615.97;10409690;28;20291;-24
2022/03/01 01:05:19;;;;;;;4.33;2.00;;;;;;;18.20;49.22;97605.81;10410331;28;20284;-25
2022/03/01 01:10:21;;;;;;;5.07;2.38;;;;;;;18.22;49.00;97601.63;10409980;28;20105;-24
2022/03/01 01:15:21;;;;;;;6.25;2.60;;;;;;;18.20;49.20;97605.81;10410415;28;20041;-24
2022/03/01 01:20:22;;;;;;;4.75;2.38;;;;;;;18.22;49.15;97601.63;10409682;28;20033;-24
2022/03/01 01:25:24;;;;;;;4.47;2.28;;;;;;;18.13;49.18;97587.16;10409812;28;20045;-24
2022/03/01 01:30:28;;;;;;;4.82;2.15;;;;;;;18.18;49.13;97607.50;10409258;28;20497;-24
2022/03/01 01:35:31;;;;;;;4.07;2.03;;;;;;;18.18;49.02;97602.41;10408882;28;20056;-25
2022/03/01 01:40:33;;;;;;;4.00;2.30;;;;;;;18.23;49.03;97605.84;10408967;28;20095;-24
2022/03/01 01:45:34;;;;;;;2.13;1.83;;;;;;;18.21;48.77;97607.53;10408566;28;20041;-25
2022/03/01 01:50:35;;;;;;;2.55;1.90;;;;;;;18.20;49.14;97603.28;10375480;28;20030;-24
2022/03/01 01:55:35;;;;;;;3.28;1.90;;;;;;;18.20;49.19;97603.28;10373957;28;20033;-25
2022/03/01 02:00:36;;;;;;;5.33;2.27;;;;;;;18.19;49.34;97619.34;10408469;28;20072;-24
2022/03/01 02:05:37;;;;;;;5.30;2.08;;;;;;;18.21;48.82;97612.59;10407882;28;20303;-24
2022/03/01 02:10:37;;;;;;;2.60;2.10;;;;;;;18.21;48.86;97602.44;10397917;28;20068;-23
2022/03/01 02:15:38;;;;;;;2.83;1.97;;;;;;;18.21;48.71;97603.31;10376236;28;20033;-24
2022/03/01 02:20:38;;;;;;;3.95;2.63;;;;;;;18.22;49.17;97610.09;10410184;28;20288;-24
2022/03/01 02:25:38;;;;;;;3.70;1.83;;;;;;;18.21;49.25;97608.41;10416224;28;20041;-25
2022/03/01 02:30:39;;;;;;;4.88;2.42;;;;;;;18.19;49.17;97611.72;10416510;28;20288;-24
2022/03/01 02:35:39;;;;;;;4.03;2.10;;;;;;;18.22;48.77;97605.03;10415439;28;20033;-24
2022/03/01 02:40:40;;;;;;;2.67;1.83;;;;;;;18.22;48.93;97602.50;10415100;28;20404;-25
2022/03/01 02:45:40;;;;;;;2.08;1.88;;;;;;;18.21;49.06;97603.31;10415641;28;20284;-23
2022/03/01 02:50:41;;;;;;;3.67;2.30;;;;;;;18.20;48.90;97595.69;10414682;28;20036;-24
2022/03/01 02:55:41;;;;;;;3.23;1.80;;;;;;;18.18;49.11;97594.81;10412661;28;20034;-25
2022/03/01 03:00:44;;;;;;;3.53;2.45;;;;;;;18.21;48.79;97594.84;10402034;28;20718;-24
2022/03/01 03:05:44;;;;;;;2.35;2.00;;;;;;;18.20;49.03;97600.75;10414012;28;20038;-23
2022/03/01 03:10:46;;;;;;;4.37;2.17;;;;;;;18.20;49.02;97598.22;10414080;28;20409;-25
2022/03/01 03:15:47;;;;;;;4.20;2.08;;;;;;;18.21;49.12;97602.44;10414199;28;20037;-24
2022/03/01 03:20:47;;;;;;;3.65;2.13;;;;;;;18.20;48.98;97598.22;10413365;28;20277;-24
2022/03/01 03:25:48;;;;;;;2.60;2.03;;;;;;;18.17;49.62;97601.56;10405231;28;20092;-24
2022/03/01 03:30:48;;;;;;;13.93;2.22;;;;;;;18.16;49.51;97604.09;10405493;28;20033;-23
2022/03/01 03:35:49;;;;;;;2.53;1.83;;;;;;;18.25;48.77;97597.44;10413108;28;20115;-24
2022/03/01 03:40:50;;;;;;;3.53;1.67;;;;;;;18.23;48.94;97594.03;10409311;28;20034;-24
2022/03/01 03:45:51;;;;;;;2.83;2.03;;;;;;;18.24;49.13;97589.84;10372163;28;20068;-24
2022/03/01 03:50:51;;;;;;;2.60;1.70;;;;;;;18.24;49.11;97594.91;10408082;28;20151;-24
2022/03/01 03:55:52;;;;;;;3.57;1.70;;;;;;;18.24;49.10;97577.16;10410527;28;20156;-24
2022/03/01 04:00:52;;;;;;;3.23;2.40;;;;;;;18.21;49.29;97572.03;10372269;28;20797;-24
2022/03/01 04:05:53;;;;;;;2.00;1.80;;;;;;;18.23;48.99;97570.38;10372180;28;20050;-24
2022/03/01 04:10:56;;;;;;;2.30;1.57;;;;;;;18.22;48.96;97569.53;10384055;28;20292;-24
2022/03/01 04:15:57;;;;;;;3.28;1.92;;;;;;;18.24;49.06;97570.41;10411930;28;20464;-24
2022/03/01 04:20:57;;;;;;;3.23;1.80;;;;;;;18.21;49.29;97561.91;10392663;28;20102;-24
2022/03/01 04:25:58;;;;;;;3.53;1.70;;;;;;;18.16;49.54;97564.38;10402212;28;20792;-26
2022/03/01 04:30:58;;;;;;;1.90;1.50;;;;;;;18.21;49.14;97577.97;10411628;28;20287;-24
2022/03/01 04:36:02;;;;;;;1.85;1.58;;;;;;;18.21;49.00;97566.97;10374310;28;20626;-25
2022/03/01 04:41:03;;;;;;;2.85;1.90;;;;;;;18.20;48.98;97555.13;10370242;28;20121;-23
2022/03/01 04:46:04;;;;;;;4.18;1.58;;;;;;;18.17;49.35;97550.88;10409852;28;20120;-26
2022/03/01 04:51:04;;;;;;;2.70;1.63;;;;;;;18.20;49.19;97556.00;10410279;28;20124;-25
2022/03/01 04:56:04;;;;;;;2.50;2.05;;;;;;;18.21;49.37;97557.69;10410522;28;20409;-24
2022/03/01 05:01:05;;;;;;;2.60;1.80;;;;;;;18.25;48.98;97553.53;10409146;28;20037;-24
2022/03/01 05:06:06;;;;;;;4.88;1.60;;;;;;;18.26;49.01;97550.16;10372258;28;20308;-24
2022/03/01 05:11:07;;;;;;;2.87;2.00;;;;;;;18.28;48.88;97551.03;10368896;28;20029;-24
2022/03/01 05:16:07;;;;;;;2.40;1.90;;;;;;;18.28;48.73;97545.94;10369480;28;20041;-24
2022/03/01 05:21:08;;;;;;;3.47;1.90;;;;;;;18.28;49.10;97548.50;10395839;28;20048;-24
2022/03/01 05:26:08;;;;;;;3.77;1.80;;;;;;;18.26;49.05;97555.22;10396061;28;20418;-24
2022/03/01 05:31:08;;;;;;;6.20;2.40;;;;;;;18.24;49.66;97551.81;10409135;28;20029;-24
2022/03/01 05:36:09;;;;;;;5.13;1.87;;;;;;;18.27;49.01;97552.72;10407713;28;20288;-24
2022/03/01 05:41:10;;;;;;;4.22;1.98;;;;;;;18.27;49.31;97551.84;10408570;28;20037;-23
2022/03/01 05:46:11;;;;;;;2.65;2.15;;;;;;;18.26;49.36;97560.28;10409437;28;20033;-24
2022/03/01 05:51:11;;;;;;;3.87;1.73;;;;;;;18.27;49.06;97562.00;10408540;28;20099;-24
2022/03/01 05:56:11;;;;;;;2.03;1.67;;;;;;;18.28;49.14;97559.50;10392909;28;20353;-23
2022/03/01 06:01:12;;;;;;;3.43;2.37;;;;;;;18.28;48.92;97564.56;10367915;28;20070;-24
2022/03/01 06:06:12;;;;;;;1.42;1.30;;;;;;;18.27;49.01;97562.88;10406726;28;20029;-24
2022/03/01 06:11:12;;;;;;;2.23;1.80;;;;;;;18.29;48.99;97573.00;10376532;28;20049;-24
2022/03/01 06:16:13;;;;;;;4.10;1.67;;;;;;;18.27;49.09;97572.13;10368453;28;20034;-24
2022/03/01 06:21:13;;;;;;;2.30;1.55;;;;;;;18.19;49.62;97569.50;10407050;28;20299;-24
2022/03/01 06:26:14;;;;;;;2.90;1.70;;;;;;;18.21;49.25;97577.09;10401214;28;20041;-24
2022/03/01 06:31:15;;;;;;;4.40;2.17;;;;;;;18.27;49.15;97572.13;10367219;28;20069;-24
2022/03/01 06:36:15;;;;;;;6.35;2.63;;;;;;;18.27;49.11;97582.28;10407009;28;20121;-24
2022/03/01 06:41:16;;;;;;;2.78;2.13;;;;;;;18.28;49.13;97586.50;10407636;28;20033;-24
2022/03/01 06:46:16;;;;;;;5.00;2.05;;;;;;;18.28;48.90;97587.38;10407919;28;20033;-24
2022/03/01 06:51:17;;;;;;;2.88;1.80;;;;;;;18.27;48.97;97585.69;10407514;28;20033;-24
2022/03/01 06:56:17;;;;;;;2.27;1.70;;;;;;;18.28;48.97;97589.03;10407270;28;20029;-25
2022/03/01 07:01:18;;;;;;;2.90;1.95;;;;;;;18.28;48.98;97594.13;10415251;28;20091;-24
2022/03/01 07:06:18;;;;;;;2.73;1.97;;;;;;;18.22;49.07;97592.34;10414605;28;20038;-25
2022/03/01 07:11:19;;;;;;;5.47;2.13;;;;;;;18.23;48.75;97595.72;10414350;28;20087;-25
2022/03/01 07:16:20;;;;;;;3.95;2.63;;;;;;;18.27;46.59;97594.94;10413113;28;20288;-24
2022/03/01 07:21:21;;;;;;;8.10;3.53;;;;;;;18.26;44.22;97594.09;10413036;28;20033;-24
2022/03/01 07:26:21;;;;;;;4.72;3.22;;;;;;;18.24;43.53;97590.69;10414501;28;20033;-24
2022/03/01 07:31:22;;;;;;;4.77;3.10;;;;;;;18.23;43.58;97586.44;10401177;28;20045;-24
2022/03/01 07:36:22;;;;;;;7.90;3.40;;;;;;;18.17;42.59;97580.44;10373501;28;20042;-24
2022/03/01 07:41:22;;;;;;;19.35;4.28;;;;;;;18.17;43.44;97581.28;10373307;28;20044;-24
2022/03/01 07:46:23;;;;;;;10.73;3.80;;;;;;;18.12;43.15;97566.84;10395077;28;20283;-24
2022/03/01 07:51:23;;;;;;;9.90;3.27;;;;;;;18.19;44.28;97564.44;10412809;28;20041;-24
2022/03/01 07:56:25;;;;;;;7.75;3.85;;;;;;;18.26;44.64;97561.13;10410638;28;20025;-24
2022/03/01 08:01:26;;;;;;;6.03;3.33;;;;;;;18.27;45.12;97556.94;10372111;28;20065;-24
2022/03/01 08:06:26;;;;;;;7.03;2.70;;;;;;;18.23;45.21;97553.50;10413105;28;20072;-24
2022/03/01 08:11:27;;;;;;;8.05;3.17;;;;;;;18.24;45.64;97549.28;10411191;28;20117;-24
2022/03/01 08:16:27;;;;;;;9.37;2.90;;;;;;;18.34;45.28;97551.16;10411893;28;20033;-24
2022/03/01 08:21:28;;;;;;;7.78;3.20;;;;;;;18.28;45.06;97554.44;10411810;28;20041;-24
2022/03/01 08:26:28;;;;;;;5.32;3.15;;;;;;;18.28;44.86;97564.56;10411923;28;20469;-24
2022/03/01 08:31:28;;;;;;;7.00;2.70;;;;;;;18.25;45.13;97561.13;10411221;28;20473;-24
2022/03/01 08:36:29;;;;;;;8.20;3.60;;;;;;;18.24;44.70;97554.38;10412094;28;20448;-24
2022/03/01 08:41:30;;;;;;;6.30;2.92;;;;;;;18.24;45.03;97556.91;10398223;28;20052;-24
2022/03/01 08:46:30;;;;;;;4.30;2.72;;;;;;;18.19;45.61;97563.56;10399345;28;20405;-25
2022/03/01 08:51:31;;;;;;;6.63;2.97;;;;;;;18.24;45.23;97556.91;10404512;28;20029;-23
2022/03/01 08:56:31;;;;;;;8.57;3.50;;;;;;;18.20;44.03;97545.00;10409360;28;20390;-24
2022/03/01 09:01:32;;;;;;;4.15;3.00;;;;;;;18.17;45.94;97539.91;10409623;28;20030;-23
2022/03/01 09:06:33;;;;;;;13.80;2.90;;;;;;;18.27;46.49;97532.44;10410120;28;20509;-25
2022/03/01 09:11:33;;;;;;;7.88;3.88;;;;;;;18.11;43.13;97529.66;10409783;28;20029;-25
2022/03/01 09:16:34;;;;;;;7.13;2.83;;;;;;;18.13;46.28;97535.59;10408003;28;20026;-24
2022/03/01 09:21:34;;;;;;;13.23;2.80;;;;;;;18.16;46.48;97549.16;10408945;28;20390;-24
2022/03/01 09:26:35;;;;;;;7.70;2.50;;;;;;;18.25;46.98;97553.53;10396388;28;20125;-24
2022/03/01 09:31:36;;;;;;;4.57;3.08;;;;;;;18.30;47.33;97552.78;10370591;28;20034;-25
2022/03/01 09:36:36;;;;;;;5.45;2.75;;;;;;;18.42;47.41;97552.09;10409758;28;20535;-24
2022/03/01 09:41:37;;;;;;;2.53;1.90;;;;;;;18.50;47.51;97555.59;10399072;28;20041;-24
2022/03/01 09:46:38;;;;;;;11.07;3.47;;;;;;;18.51;47.06;97562.38;10370625;28;20038;-24
2022/03/01 09:51:40;;;;;;;4.75;2.35;;;;;;;18.58;47.27;97561.63;10409929;28;20413;-24
2022/03/01 09:56:40;;;;;;;7.78;2.30;;;;;;;18.63;47.05;97559.97;10387915;28;20033;-24
2022/03/01 10:01:52;;;;;;;5.82;2.47;;;;;;;18.70;47.11;97561.75;10366868;28;20041;-24
2022/03/01 10:06:52;;;;;;;7.40;2.85;;;;;;;18.71;46.84;97566.00;10367376;28;20029;-23
2022/03/01 10:11:53;;;;;;;6.93;3.37;;;;;;;18.76;46.96;97569.47;10376228;28;20048;-24
2022/03/01 10:16:53;;;;;;;3.47;2.47;;;;;;;18.80;46.23;97576.25;10405807;28;20781;-24
2022/03/01 10:21:59;;;;;;;4.03;2.33;;;;;;;18.68;46.52;97565.97;10367691;28;20053;-24
2022/03/01 10:27:05;;;;;;;3.27;2.50;;;;;;;18.64;46.74;97576.91;10387009;28;20060;-24
2022/03/01 10:32:12;;;;;;;4.05;2.30;;;;;;;18.61;46.57;97570.13;10404215;28;20037;-24
2022/03/01 10:37:26;;;;;;;8.48;3.10;;;;;;;18.60;46.73;97567.56;10375722;28;20408;-25
2022/03/01 10:42:26;;;;;;;4.90;2.30;;;;;;;18.62;46.53;97568.41;10383769;28;20136;-23
2022/03/01 10:47:28;;;;;;;7.20;2.75;;;;;;;18.62;46.50;97568.41;10407574;28;20490;-24
2022/03/01 10:52:37;;;;;;;3.85;2.50;;;;;;;18.64;46.50;97561.69;10375191;28;20038;-24
2022/03/01 10:57:37;;;;;;;7.85;3.15;;;;;;;18.62;46.44;97564.22;10375275;28;20048;-25
2022/03/01 11:02:37;;;;;;;5.10;2.50;;;;;;;18.62;46.55;97560.81;10375055;28;20044;-24
2022/03/01 11:07:39;;;;;;;5.00;2.63;;;;;;;18.63;46.66;97557.44;10402483;28;20232;-23
2022/03/01 11:12:43;;;;;;;5.35;2.70;;;;;;;18.56;46.85;97545.50;10401191;28;20091;-25
2022/03/01 11:17:55;;;;;;;9.38;2.60;;;;;;;18.54;46.83;97532.84;10410935;28;20470;-24
2022/03/01 11:23:02;;;;;;;6.82;2.63;;;;;;;18.54;47.03;97527.75;10381112;28;20030;-24
2022/03/01 11:28:08;;;;;;;8.02;2.72;;;;;;;18.59;47.05;97530.34;10392243;28;20164;-24
2022/03/01 11:33:09;;;;;;;8.50;2.67;;;;;;;18.62;46.65;97522.78;10386811;28;20072;-26
2022/03/01 11:38:15;;;;;;;6.78;4.03;;;;;;;18.65;46.81;97512.66;10414057;28;20128;-24
2022/03/01 11:43:17;;;;;;;9.40;2.83;;;;;;;18.69;46.75;97509.34;10409241;28;20490;-24
2022/03/01 11:48:20;;;;;;;6.18;2.75;;;;;;;18.60;46.09;97501.63;10396180;28;20053;-24
2022/03/01 11:53:22;;;;;;;5.90;2.40;;;;;;;18.62;46.65;97497.41;10402859;28;20197;-24
2022/03/01 11:58:24;;;;;;;13.00;3.72;;;;;;;18.54;39.92;97492.25;10401519;28;20468;-24
2022/03/01 12:03:26;;;;;;;9.75;4.07;;;;;;;18.36;40.67;97502.19;10406507;28;20060;-25
2022/03/01 12:08:29;;;;;;;6.95;2.95;;;;;;;18.48;43.06;97491.31;10412684;28;20478;-24
2022/03/01 12:13:33;;;;;;;8.60;3.03;;;;;;;18.59;44.45;97500.75;10411983;28;20029;-24
2022/03/01 12:18:37;;;;;;;4.18;2.08;;;;;;;18.63;44.99;97487.28;10411989;28;20128;-24
2022/03/01 12:23:39;;;;;;;3.88;2.40;;;;;;;18.60;45.42;97487.22;10411968;28;20117;-24
2022/03/01 12:28:44;;;;;;;4.85;2.38;;;;;;;18.61;45.74;97481.34;10411952;28;20060;-24
2022/03/01 12:33:51;;;;;;;3.08;2.20;;;;;;;18.62;45.81;97488.13;10410728;28;20556;-25
2022/03/01 12:38:53;;;;;;;3.08;1.92;;;;;;;18.64;45.98;97493.19;10411475;28;20037;-24
2022/03/01 12:43:59;;;;;;;4.80;2.28;;;;;;;18.61;46.31;97485.56;10410468;28;20541;-24
2022/03/01 12:49:04;;;;;;;6.18;2.05;;;;;;;18.62;46.54;97494.88;10390055;28;20489;-24
2022/03/01 12:54:09;;;;;;;2.60;2.20;;;;;;;18.65;46.43;97494.91;10370492;28;20544;-24
2022/03/01 12:59:15;;;;;;;5.43;2.08;;;;;;;18.63;46.58;97476.28;10406346;28;20451;-24
2022/03/01 13:04:17;;;;;;;3.47;2.08;;;;;;;18.65;46.74;97472.94;10409992;28;20116;-24
2022/03/01 13:09:17;;;;;;;2.90;2.13;;;;;;;18.69;46.26;97471.28;10410098;28;20257;-24
2022/03/01 13:14:18;;;;;;;4.72;2.10;;;;;;;18.70;46.24;97448.47;10371048;28;20125;-26
2022/03/01 13:19:24;;;;;;;4.43;1.55;;;;;;;18.72;46.67;97456.09;10392277;28;20491;-25
2022/03/01 13:24:34;;;;;;;4.07;1.92;;;;;;;18.70;46.62;97458.63;10410266;28;20505;-24
2022/03/01 13:29:38;;;;;;;3.70;1.75;;;;;;;18.70;46.72;97457.75;10382928;28;20108;-25
2022/03/01 13:34:43;;;;;;;3.75;1.80;;;;;;;18.71;46.73;97447.66;10369112;28;20111;-24
2022/03/01 13:39:46;;;;;;;3.38;1.70;;;;;;;18.72;46.60;97445.94;10368996;28;20034;-25
2022/03/01 13:44:51;;;;;;;3.45;2.00;;;;;;;18.71;47.08;97450.19;10369099;28;20036;-24
2022/03/01 13:50:06;;;;;;;3.15;2.10;;;;;;;18.74;46.86;97439.22;10396049;28;20408;-24
2022/03/01 13:55:09;;;;;;;3.92;2.17;;;;;;;18.73;46.91;97437.50;10409177;28;20485;-24
2022/03/01 14:00:11;;;;;;;3.20;2.38;;;;;;;18.75;46.82;97431.59;10408848;28;20049;-24
2022/03/01 14:05:18;;;;;;;2.70;2.13;;;;;;;18.74;47.03;97429.06;10408042;28;20060;-23
2022/03/01 14:10:24;;;;;;;2.83;1.90;;;;;;;18.77;46.71;97418.94;10414815;28;20061;-24
2022/03/01 14:15:32;;;;;;;3.55;2.28;;;;;;;18.78;47.13;97420.66;10417118;28;20064;-24
2022/03/01 14:20:33;;;;;;;3.08;2.30;;;;;;;18.75;47.31;97418.09;10416661;28;20120;-24
2022/03/01 14:25:34;;;;;;;3.17;2.03;;;;;;;18.76;46.92;97423.16;10416532;28;20036;-25
2022/03/01 14:30:36;;;;;;;2.10;1.85;;;;;;;18.73;47.13;97412.13;10416343;28;20048;-24
2022/03/01 14:35:38;;;;;;;2.95;2.35;;;;;;;18.73;47.00;97422.28;10382844;28;20065;-24
2022/03/01 14:40:38;;;;;;;2.70;2.03;;;;;;;18.73;47.39;97413.00;10375780;28;20077;-24
2022/03/01 14:45:39;;;;;;;2.83;1.80;;;;;;;18.76;47.04;97412.19;10375726;28;20421;-25
2022/03/01 14:50:39;;;;;;;2.67;2.13;;;;;;;18.75;47.48;97413.00;10409183;28;20033;-24
2022/03/01 14:55:40;;;;;;;5.23;2.10;;;;;;;18.76;47.12;97407.94;10415622;28;20036;-24
2022/03/01 15:00:40;;;;;;;2.93;1.80;;;;;;;18.77;47.18;97403.72;10415664;28;20083;-24
2022/03/01 15:05:40;;;;;;;3.53;1.90;;;;;;;18.78;47.74;97411.38;10380810;28;20555;-25
2022/03/01 15:10:41;;;;;;;2.17;1.88;;;;;;;18.80;47.73;97411.34;10380498;28;20092;-24
2022/03/01 15:15:41;;;;;;;2.47;1.70;;;;;;;18.79;47.28;97410.53;10414443;28;20037;-24
2022/03/01 15:20:42;;;;;;;2.20;1.63;;;;;;;18.78;47.68;97402.88;10378608;28;20044;-24
2022/03/01 15:25:42;;;;;;;3.30;1.53;;;;;;;18.78;47.21;97407.97;10373625;28;20646;-24
2022/03/01 15:30:44;;;;;;;2.30;2.00;;;;;;;18.77;47.23;97406.25;10412773;28;20025;-24
2022/03/01 15:35:44;;;;;;;2.70;2.30;;;;;;;18.76;47.26;97407.94;10413623;28;20782;-24
2022/03/01 15:40:44;;;;;;;2.50;1.90;;;;;;;18.71;47.15;97401.13;10413458;28;20076;-23
2022/03/01 15:45:45;;;;;;;2.10;1.90;;;;;;;18.77;47.20;97411.34;10376112;28;20858;-26
2022/03/01 15:50:45;;;;;;;2.47;1.80;;;;;;;18.74;47.41;97412.16;10410963;28;20033;-24
2022/03/01 15:55:47;;;;;;;2.35;1.90;;;;;;;18.78;47.27;97421.50;10420851;28;20045;-24
2022/03/01 16:00:48;;;;;;;2.85;1.90;;;;;;;18.77;47.36;97404.56;10384063;28;20028;-24
2022/03/01 16:05:48;;;;;;;1.90;1.60;;;;;;;18.80;47.99;97414.75;10415414;28;20044;-26
2022/03/01 16:10:49;;;;;;;1.83;1.67;;;;;;;18.82;47.69;97405.47;10422739;28;20132;-25
2022/03/01 16:15:51;;;;;;;2.07;1.63;;;;;;;18.82;47.35;97409.72;10386371;28;20804;-24
2022/03/01 16:20:51;;;;;;;2.53;1.65;;;;;;;18.79;47.52;97407.13;10416257;28;20460;-24
2022/03/01 16:25:52;;;;;;;1.77;1.40;;;;;;;18.81;47.19;97410.50;10421985;28;20048;-25
2022/03/01 16:30:53;;;;;;;2.45;1.60;;;;;;;18.79;47.21;97412.19;10421387;28;20120;-25
2022/03/01 16:35:53;;;;;;;5.57;2.20;;;;;;;18.79;46.97;97407.97;10420186;28;20099;-25
2022/03/01 16:40:54;;;;;;;2.25;1.42;;;;;;;18.77;47.49;97409.63;10423690;28;20051;-25
2022/03/01 16:45:54;;;;;;;2.97;1.83;;;;;;;18.79;47.36;97402.91;10420345;28;20048;-24
2022/03/01 16:50:55;;;;;;;2.20;1.85;;;;;;;18.82;47.15;97402.09;10417520;28;20032;-25
2022/03/01 16:55:55;;;;;;;1.92;1.65;;;;;;;18.77;46.89;97393.56;10414193;28;20045;-24
2022/03/01 17:00:56;;;;;;;2.70;2.23;;;;;;;18.84;46.74;97400.41;10410760;28;20037;-25
2022/03/01 17:05:56;;;;;;;2.53;2.07;;;;;;;18.89;46.67;97408.91;10420832;28;20083;-24
2022/03/01 17:10:58;;;;;;;2.97;2.10;;;;;;;18.89;47.09;97412.31;10410175;28;20296;-24
2022/03/01 17:15:59;;;;;;;2.15;1.70;;;;;;;18.89;47.00;97406.38;10410931;28;20486;-25
2022/03/01 17:21:02;;;;;;;1.60;1.40;;;;;;;18.87;47.06;97420.72;10409482;28;20049;-24
2022/03/01 17:26:03;;;;;;;2.40;1.88;;;;;;;18.80;46.89;97401.22;10410415;28;20529;-24
2022/03/01 17:31:04;;;;;;;3.42;1.90;;;;;;;18.87;46.77;97405.50;10370798;28;20038;-23
2022/03/01 17:36:05;;;;;;;1.95;1.75;;;;;;;18.83;47.11;97399.56;10369586;28;20038;-24
2022/03/01 17:41:05;;;;;;;2.25;2.05;;;;;;;18.84;46.99;97397.88;10368449;28;20041;-24
2022/03/01 17:46:06;;;;;;;2.10;1.57;;;;;;;18.79;47.05;97400.38;10369386;28;20032;-24
2022/03/01 17:51:06;;;;;;;2.33;1.92;;;;;;;18.80;46.88;97407.16;10369410;28;20458;-24
2022/03/01 17:56:06;;;;;;;1.80;1.40;;;;;;;18.80;47.08;97408.81;10371818;28;20025;-25
2022/03/01 18:01:07;;;;;;;1.73;1.60;;;;;;;18.81;46.87;97415.59;10409373;28;20370;-25
2022/03/01 18:06:08;;;;;;;3.65;2.00;;;;;;;18.83;47.06;97408.88;10408932;28;20291;-25
2022/03/01 18:11:08;;;;;;;2.25;1.60;;;;;;;18.85;46.94;97413.09;10405557;28;20087;-24
2022/03/01 18:16:09;;;;;;;2.67;1.53;;;;;;;18.79;46.93;97412.19;10369114;28;20260;-24
2022/03/01 18:21:10;;;;;;;2.45;1.95;;;;;;;18.85;46.90;97423.25;10406202;28;20041;-24
2022/03/01 18:26:11;;;;;;;2.15;1.90;;;;;;;18.85;46.97;97422.41;10407717;28;20069;-25
2022/03/01 18:31:12;;;;;;;2.20;1.60;;;;;;;18.84;46.98;97418.19;10408363;28;20029;-24
2022/03/01 18:36:14;;;;;;;2.13;1.90;;;;;;;18.83;46.58;97413.94;10407712;28;20030;-24
2022/03/01 18:41:15;;;;;;;2.17;1.80;;;;;;;18.83;46.58;97406.34;10407741;28;20029;-24
2022/03/01 18:46:16;;;;;;;4.40;2.35;;;;;;;18.78;46.45;97402.88;10405514;28;20040;-24
2022/03/01 18:51:16;;;;;;;2.40;2.00;;;;;;;18.80;46.50;97413.88;10400952;28;20041;-25
2022/03/01 18:56:17;;;;;;;2.85;1.77;;;;;;;18.80;46.39;97409.69;10406816;28;20033;-24
2022/03/01 19:01:19;;;;;;;3.22;2.20;;;;;;;18.82;46.66;97407.16;10391734;28;20125;-24
2022/03/01 19:06:21;;;;;;;1.98;1.77;;;;;;;18.81;46.61;97392.75;10409599;28;20493;-24
2022/03/01 19:11:23;;;;;;;1.75;1.65;;;;;;;18.85;46.89;97408.03;10410241;28;20035;-24
2022/03/01 19:16:23;;;;;;;3.83;1.50;;;;;;;18.84;46.67;97416.47;10411061;28;20187;-25
2022/03/01 19:21:26;;;;;;;1.75;1.65;;;;;;;18.83;46.79;97416.47;10371061;28;20092;-25
2022/03/01 19:26:26;;;;;;;3.63;2.22;;;;;;;18.84;46.87;97418.19;10384400;28;20168;-24
2022/03/01 19:31:27;;;;;;;1.95;1.70;;;;;;;18.82;46.45;97408.00;10409249;28;20026;-25
2022/03/01 19:36:27;;;;;;;2.00;1.48;;;;;;;18.83;46.86;97412.25;10409894;28;20049;-24
2022/03/01 19:41:29;;;;;;;2.67;2.08;;;;;;;18.82;46.93;97409.72;10409534;28;20103;-24
2022/03/01 19:46:30;;;;;;;3.05;2.30;;;;;;;18.78;47.17;97415.56;10407211;28;20066;-24
2022/03/01 19:51:30;;;;;;;3.03;2.13;;;;;;;18.74;47.05;97426.53;10401643;28;20445;-25
2022/03/01 19:56:32;;;;;;;2.22;1.85;;;;;;;18.78;46.95;97420.66;10406449;28;20037;-24
2022/03/01 20:01:33;;;;;;;2.30;1.67;;;;;;;18.78;47.04;97415.56;10405705;28;20037;-25
2022/03/01 20:06:34;;;;;;;2.45;1.83;;;;;;;18.76;46.62;97409.63;10367182;28;20046;-24
2022/03/01 20:11:35;;;;;;;3.83;1.95;;;;;;;18.75;47.13;97415.56;10367395;28;20402;-25
2022/03/01 20:16:36;;;;;;;4.78;1.85;;;;;;;18.74;47.18;97411.31;10367561;28;20041;-24
2022/03/01 20:21:36;;;;;;;2.40;1.70;;;;;;;18.74;46.95;97413.84;10366817;28;20038;-24
2022/03/01 20:26:37;;;;;;;2.20;1.87;;;;;;;18.73;47.38;97422.28;10366785;28;20501;-24
2022/03/01 20:31:38;;;;;;;2.45;1.60;;;;;;;18.71;47.35;97418.88;10366804;28;20395;-24
2022/03/01 20:36:39;;;;;;;4.00;1.77;;;;;;;18.73;47.21;97409.59;10366181;28;20037;-24
2022/03/01 20:41:40;;;;;;;1.73;1.57;;;;;;;18.69;47.10;97403.66;10369270;28;20064;-24
2022/03/01 20:46:41;;;;;;;2.45;1.75;;;;;;;18.73;47.25;97401.97;10405809;28;20384;-24
2022/03/01 20:51:42;;;;;;;4.60;1.48;;;;;;;18.77;47.08;97402.03;10405074;28;20037;-25
2022/03/01 20:56:43;;;;;;;2.22;1.65;;;;;;;18.79;47.21;97390.22;10404644;28;20040;-24
2022/03/01 21:01:43;;;;;;;1.90;1.42;;;;;;;18.80;47.00;97393.59;10404025;28;20037;-24
2022/03/01 21:06:44;;;;;;;1.80;1.50;;;;;;;18.78;47.17;97393.59;10406246;28;20040;-24
2022/03/01 21:11:45;;;;;;;2.20;1.75;;;;;;;18.73;47.33;97391.84;10405642;28;20036;-24
2022/03/01 21:16:46;;;;;;;3.60;1.83;;;;;;;18.75;47.21;97396.09;10404086;28;20037;-24
2022/03/01 21:21:46;;;;;;;1.95;1.75;;;;;;;18.74;47.47;97401.16;10404863;28;20450;-24
2022/03/01 21:26:47;;;;;;;2.83;2.08;;;;;;;18.76;47.39;97389.34;10397353;28;20410;-24
2022/03/01 21:31:48;;;;;;;2.30;1.63;;;;;;;18.74;47.23;97389.31;10367307;28;20574;-24
2022/03/01 21:36:49;;;;;;;2.47;1.70;;;;;;;18.77;47.39;97399.47;10406474;28;20497;-24
2022/03/01 21:41:49;;;;;;;1.60;1.40;;;;;;;18.73;47.22;97392.69;10404527;28;20036;-24
2022/03/01 21:46:51;;;;;;;1.40;1.27;;;;;;;18.72;47.40;97385.94;10404912;28;20814;-25
2022/03/01 21:51:52;;;;;;;2.92;2.10;;;;;;;18.77;47.36;97391.03;10403255;28;20048;-24
2022/03/01 21:56:52;;;;;;;2.85;1.52;;;;;;;18.82;46.88;97379.25;10390334;28;20402;-24
2022/03/01 22:01:53;;;;;;;3.40;1.95;;;;;;;18.79;47.21;97371.59;10367005;28;20663;-24
2022/03/01 22:06:53;;;;;;;1.55;1.45;;;;;;;18.77;47.02;97368.22;10402805;28;20042;-26
2022/03/01 22:11:53;;;;;;;2.20;1.60;;;;;;;18.73;47.10;97372.41;10403864;28;20048;-25
2022/03/01 22:16:54;;;;;;;2.00;1.80;;;;;;;18.70;47.18;97362.25;10404271;28;20328;-24
2022/03/01 22:21:54;;;;;;;1.60;1.47;;;;;;;18.70;47.38;97357.16;10403526;28;20471;-24
2022/03/01 22:26:55;;;;;;;1.90;1.50;;;;;;;18.70;47.39;97353.75;10391430;28;20383;-24
2022/03/01 22:31:55;;;;;;;4.03;1.83;;;;;;;18.69;47.70;97365.63;10371857;28;20041;-24
2022/03/01 22:36:56;;;;;;;3.08;1.98;;;;;;;18.71;47.47;97363.06;10376300;28;20042;-24
2022/03/01 22:41:57;;;;;;;4.63;1.48;;;;;;;18.71;48.39;97358.00;10413057;28;20040;-24
2022/03/01 22:46:58;;;;;;;4.30;1.88;;;;;;;18.71;48.25;97353.78;10404502;28;20061;-24
2022/03/01 22:51:58;;;;;;;1.73;1.38;;;;;;;18.77;47.78;97342.84;10415183;28;20087;-24
2022/03/01 22:56:59;;;;;;;2.55;2.00;;;;;;;18.78;47.30;97347.06;10414042;28;20099;-24
2022/03/01 23:01:59;;;;;;;1.55;1.40;;;;;;;18.75;47.58;97349.59;10413934;28;20044;-24
2022/03/01 23:12:19;;;;;;;1.63;1.50;;;;;;;18.71;47.97;97337.72;10414357;28;20045;-24
2022/03/01 23:17:19;;;;;;;2.90;1.57;;;;;;;18.72;47.14;97341.94;10414322;28;20042;-24
2022/03/01 23:22:22;;;;;;;3.70;2.63;;;;;;;18.70;47.95;97330.94;10415175;28;20310;-24